sensor_id;sensor_type;location;lat;lon;timestamp;P1;durP1;ratioP1;P2;durP2;ratioP2
59302;SDS011;45074;52.764;6.896;2022-08-25T00:01:18;7.22;;;4.20;;
59302;SDS011;45074;52.764;6.896;2022-08-25T00:03:47;6.65;;;4.63;;
59302;SDS011;45074;52.764;6.896;2022-08-25T00:06:13;7.80;;;4.57;;
59302;SDS011;45074;52.764;6.896;2022-08-25T00:08:40;7.82;;;4.30;;
59302;SDS011;45074;52.764;6.896;2022-08-25T00:11:11;7.40;;;4.32;;
59302;SDS011;45074;52.764;6.896;2022-08-25T00:13:40;7.13;;;4.45;;
59302;SDS011;45074;52.764;6.896;2022-08-25T00:16:09;8.93;;;4.57;;
59302;SDS011;45074;52.764;6.896;2022-08-25T00:18:35;10.70;;;4.50;;
59302;SDS011;45074;52.764;6.896;2022-08-25T00:21:05;8.40;;;4.88;;
59302;SDS011;45074;52.764;6.896;2022-08-25T00:23:31;7.72;;;4.88;;
59302;SDS011;45074;52.764;6.896;2022-08-25T00:25:57;7.90;;;4.22;;
59302;SDS011;45074;52.764;6.896;2022-08-25T00:28:22;9.15;;;4.75;;
59302;SDS011;45074;52.764;6.896;2022-08-25T00:30:48;6.93;;;4.30;;
59302;SDS011;45074;52.764;6.896;2022-08-25T00:33:14;7.15;;;4.70;;
59302;SDS011;45074;52.764;6.896;2022-08-25T00:35:40;7.22;;;4.35;;
59302;SDS011;45074;52.764;6.896;2022-08-25T00:38:07;6.53;;;4.40;;
59302;SDS011;45074;52.764;6.896;2022-08-25T00:40:34;7.22;;;4.47;;
59302;SDS011;45074;52.764;6.896;2022-08-25T00:43:00;8.25;;;4.47;;
59302;SDS011;45074;52.764;6.896;2022-08-25T00:45:27;7.82;;;4.55;;
59302;SDS011;45074;52.764;6.896;2022-08-25T00:47:52;6.72;;;4.20;;
59302;SDS011;45074;52.764;6.896;2022-08-25T00:50:19;8.48;;;4.47;;
59302;SDS011;45074;52.764;6.896;2022-08-25T00:52:47;8.48;;;4.53;;
59302;SDS011;45074;52.764;6.896;2022-08-25T00:57:46;7.07;;;4.50;;
59302;SDS011;45074;52.764;6.896;2022-08-25T01:00:21;6.88;;;4.00;;
59302;SDS011;45074;52.764;6.896;2022-08-25T01:02:50;9.27;;;4.40;;
59302;SDS011;45074;52.764;6.896;2022-08-25T01:05:16;10.55;;;4.70;;
59302;SDS011;45074;52.764;6.896;2022-08-25T01:07:43;6.10;;;4.07;;
59302;SDS011;45074;52.764;6.896;2022-08-25T01:10:09;6.88;;;4.07;;
59302;SDS011;45074;52.764;6.896;2022-08-25T01:12:37;8.43;;;4.40;;
59302;SDS011;45074;52.764;6.896;2022-08-25T01:15:05;8.20;;;4.10;;
59302;SDS011;45074;52.764;6.896;2022-08-25T01:17:46;7.10;;;4.38;;
59302;SDS011;45074;52.764;6.896;2022-08-25T01:20:14;8.07;;;4.20;;
59302;SDS011;45074;52.764;6.896;2022-08-25T01:22:42;6.75;;;4.30;;
59302;SDS011;45074;52.764;6.896;2022-08-25T01:25:16;8.18;;;4.65;;
59302;SDS011;45074;52.764;6.896;2022-08-25T01:28:04;8.52;;;4.70;;
59302;SDS011;45074;52.764;6.896;2022-08-25T01:30:30;7.75;;;4.28;;
59302;SDS011;45074;52.764;6.896;2022-08-25T01:32:56;7.70;;;4.43;;
59302;SDS011;45074;52.764;6.896;2022-08-25T01:35:21;6.28;;;3.92;;
59302;SDS011;45074;52.764;6.896;2022-08-25T01:37:48;8.15;;;4.50;;
59302;SDS011;45074;52.764;6.896;2022-08-25T01:40:14;6.38;;;4.30;;
59302;SDS011;45074;52.764;6.896;2022-08-25T01:45:11;7.35;;;4.28;;
59302;SDS011;45074;52.764;6.896;2022-08-25T01:47:37;8.40;;;4.50;;
59302;SDS011;45074;52.764;6.896;2022-08-25T01:50:04;8.85;;;4.43;;
59302;SDS011;45074;52.764;6.896;2022-08-25T01:52:32;9.07;;;4.60;;
59302;SDS011;45074;52.764;6.896;2022-08-25T01:55:02;8.52;;;4.45;;
59302;SDS011;45074;52.764;6.896;2022-08-25T01:57:29;7.47;;;4.20;;
59302;SDS011;45074;52.764;6.896;2022-08-25T01:59:55;7.22;;;4.18;;
59302;SDS011;45074;52.764;6.896;2022-08-25T02:02:22;7.10;;;4.68;;
59302;SDS011;45074;52.764;6.896;2022-08-25T02:04:48;7.75;;;4.35;;
59302;SDS011;45074;52.764;6.896;2022-08-25T02:07:13;7.97;;;4.22;;
59302;SDS011;45074;52.764;6.896;2022-08-25T02:09:39;8.13;;;4.78;;
59302;SDS011;45074;52.764;6.896;2022-08-25T02:12:05;8.00;;;4.15;;
59302;SDS011;45074;52.764;6.896;2022-08-25T02:14:33;9.85;;;4.55;;
59302;SDS011;45074;52.764;6.896;2022-08-25T02:17:00;9.18;;;4.20;;
59302;SDS011;45074;52.764;6.896;2022-08-25T02:19:27;7.95;;;4.93;;
59302;SDS011;45074;52.764;6.896;2022-08-25T02:21:55;15.07;;;4.40;;
59302;SDS011;45074;52.764;6.896;2022-08-25T02:24:21;8.55;;;4.30;;
59302;SDS011;45074;52.764;6.896;2022-08-25T02:26:47;7.32;;;4.50;;
59302;SDS011;45074;52.764;6.896;2022-08-25T02:29:13;7.00;;;4.30;;
59302;SDS011;45074;52.764;6.896;2022-08-25T02:31:39;10.45;;;4.90;;
59302;SDS011;45074;52.764;6.896;2022-08-25T02:34:05;6.95;;;4.10;;
59302;SDS011;45074;52.764;6.896;2022-08-25T02:36:32;9.98;;;4.63;;
59302;SDS011;45074;52.764;6.896;2022-08-25T02:38:58;7.95;;;4.40;;
59302;SDS011;45074;52.764;6.896;2022-08-25T02:41:24;9.32;;;4.25;;
59302;SDS011;45074;52.764;6.896;2022-08-25T02:43:51;7.75;;;4.10;;
59302;SDS011;45074;52.764;6.896;2022-08-25T02:46:18;8.35;;;4.20;;
59302;SDS011;45074;52.764;6.896;2022-08-25T02:48:45;10.48;;;4.63;;
59302;SDS011;45074;52.764;6.896;2022-08-25T02:51:11;6.63;;;4.25;;
59302;SDS011;45074;52.764;6.896;2022-08-25T02:53:38;6.90;;;4.35;;
59302;SDS011;45074;52.764;6.896;2022-08-25T02:56:08;9.65;;;4.32;;
59302;SDS011;45074;52.764;6.896;2022-08-25T02:58:35;7.80;;;4.50;;
59302;SDS011;45074;52.764;6.896;2022-08-25T03:01:02;7.38;;;4.20;;
59302;SDS011;45074;52.764;6.896;2022-08-25T03:03:28;7.13;;;4.43;;
59302;SDS011;45074;52.764;6.896;2022-08-25T03:05:54;6.75;;;4.32;;
59302;SDS011;45074;52.764;6.896;2022-08-25T03:08:21;6.95;;;4.22;;
59302;SDS011;45074;52.764;6.896;2022-08-25T03:10:47;8.90;;;4.80;;
59302;SDS011;45074;52.764;6.896;2022-08-25T03:13:13;7.60;;;4.60;;
59302;SDS011;45074;52.764;6.896;2022-08-25T03:15:38;6.50;;;4.13;;
59302;SDS011;45074;52.764;6.896;2022-08-25T03:18:06;7.15;;;4.60;;
59302;SDS011;45074;52.764;6.896;2022-08-25T03:20:32;7.22;;;4.35;;
59302;SDS011;45074;52.764;6.896;2022-08-25T03:22:59;9.25;;;4.57;;
59302;SDS011;45074;52.764;6.896;2022-08-25T03:25:28;7.43;;;4.50;;
59302;SDS011;45074;52.764;6.896;2022-08-25T03:28:13;7.80;;;4.72;;
59302;SDS011;45074;52.764;6.896;2022-08-25T03:30:39;7.38;;;4.90;;
59302;SDS011;45074;52.764;6.896;2022-08-25T03:33:05;7.75;;;4.95;;
59302;SDS011;45074;52.764;6.896;2022-08-25T03:35:31;7.95;;;4.63;;
59302;SDS011;45074;52.764;6.896;2022-08-25T03:37:57;7.40;;;4.60;;
59302;SDS011;45074;52.764;6.896;2022-08-25T03:40:25;7.72;;;4.68;;
59302;SDS011;45074;52.764;6.896;2022-08-25T03:42:51;6.72;;;4.57;;
59302;SDS011;45074;52.764;6.896;2022-08-25T03:45:19;7.68;;;4.60;;
59302;SDS011;45074;52.764;6.896;2022-08-25T03:47:48;10.52;;;5.18;;
59302;SDS011;45074;52.764;6.896;2022-08-25T03:50:15;8.65;;;4.90;;
59302;SDS011;45074;52.764;6.896;2022-08-25T03:52:43;9.00;;;5.10;;
59302;SDS011;45074;52.764;6.896;2022-08-25T03:55:10;9.85;;;4.75;;
59302;SDS011;45074;52.764;6.896;2022-08-25T03:57:37;8.30;;;4.90;;
59302;SDS011;45074;52.764;6.896;2022-08-25T04:00:04;8.80;;;5.22;;
59302;SDS011;45074;52.764;6.896;2022-08-25T04:02:32;8.85;;;5.22;;
59302;SDS011;45074;52.764;6.896;2022-08-25T04:04:57;8.32;;;5.18;;
59302;SDS011;45074;52.764;6.896;2022-08-25T04:07:23;8.27;;;4.93;;
59302;SDS011;45074;52.764;6.896;2022-08-25T04:09:49;7.85;;;4.75;;
59302;SDS011;45074;52.764;6.896;2022-08-25T04:12:14;7.50;;;5.00;;
59302;SDS011;45074;52.764;6.896;2022-08-25T04:14:40;8.25;;;4.90;;
59302;SDS011;45074;52.764;6.896;2022-08-25T04:17:06;10.30;;;4.82;;
59302;SDS011;45074;52.764;6.896;2022-08-25T04:19:33;8.95;;;5.43;;
59302;SDS011;45074;52.764;6.896;2022-08-25T04:21:59;8.00;;;4.82;;
59302;SDS011;45074;52.764;6.896;2022-08-25T04:24:25;8.32;;;5.50;;
59302;SDS011;45074;52.764;6.896;2022-08-25T04:26:51;8.55;;;5.18;;
59302;SDS011;45074;52.764;6.896;2022-08-25T04:29:18;8.18;;;4.93;;
59302;SDS011;45074;52.764;6.896;2022-08-25T04:31:46;10.15;;;5.13;;
59302;SDS011;45074;52.764;6.896;2022-08-25T04:34:14;7.97;;;5.70;;
59302;SDS011;45074;52.764;6.896;2022-08-25T04:36:44;8.57;;;5.30;;
59302;SDS011;45074;52.764;6.896;2022-08-25T04:39:10;9.13;;;5.63;;
59302;SDS011;45074;52.764;6.896;2022-08-25T04:41:37;9.05;;;5.15;;
59302;SDS011;45074;52.764;6.896;2022-08-25T04:44:02;8.23;;;5.60;;
59302;SDS011;45074;52.764;6.896;2022-08-25T04:46:29;8.55;;;5.70;;
59302;SDS011;45074;52.764;6.896;2022-08-25T04:48:57;11.05;;;6.20;;
59302;SDS011;45074;52.764;6.896;2022-08-25T04:51:25;11.15;;;5.65;;
59302;SDS011;45074;52.764;6.896;2022-08-25T04:53:57;8.82;;;5.38;;
59302;SDS011;45074;52.764;6.896;2022-08-25T04:56:25;8.38;;;5.30;;
59302;SDS011;45074;52.764;6.896;2022-08-25T04:58:52;9.65;;;5.22;;
59302;SDS011;45074;52.764;6.896;2022-08-25T05:01:21;9.15;;;5.47;;
59302;SDS011;45074;52.764;6.896;2022-08-25T05:03:53;7.90;;;5.20;;
59302;SDS011;45074;52.764;6.896;2022-08-25T05:06:20;10.90;;;5.85;;
59302;SDS011;45074;52.764;6.896;2022-08-25T05:08:46;9.60;;;5.45;;
59302;SDS011;45074;52.764;6.896;2022-08-25T05:11:13;9.65;;;5.38;;
59302;SDS011;45074;52.764;6.896;2022-08-25T05:13:41;9.60;;;5.68;;
59302;SDS011;45074;52.764;6.896;2022-08-25T05:16:08;9.07;;;5.15;;
59302;SDS011;45074;52.764;6.896;2022-08-25T05:18:33;9.40;;;5.70;;
59302;SDS011;45074;52.764;6.896;2022-08-25T05:21:03;10.18;;;5.35;;
59302;SDS011;45074;52.764;6.896;2022-08-25T05:23:31;9.75;;;5.63;;
59302;SDS011;45074;52.764;6.896;2022-08-25T05:26:00;12.35;;;5.60;;
59302;SDS011;45074;52.764;6.896;2022-08-25T05:28:50;10.57;;;6.30;;
59302;SDS011;45074;52.764;6.896;2022-08-25T05:31:17;11.27;;;5.55;;
59302;SDS011;45074;52.764;6.896;2022-08-25T05:33:43;12.05;;;6.07;;
59302;SDS011;45074;52.764;6.896;2022-08-25T05:36:10;10.35;;;5.95;;
59302;SDS011;45074;52.764;6.896;2022-08-25T05:38:37;10.80;;;5.93;;
59302;SDS011;45074;52.764;6.896;2022-08-25T05:41:05;10.15;;;6.50;;
59302;SDS011;45074;52.764;6.896;2022-08-25T05:43:42;11.05;;;5.97;;
59302;SDS011;45074;52.764;6.896;2022-08-25T05:46:10;11.20;;;6.40;;
59302;SDS011;45074;52.764;6.896;2022-08-25T05:48:36;10.40;;;6.32;;
59302;SDS011;45074;52.764;6.896;2022-08-25T05:51:03;11.10;;;5.93;;
59302;SDS011;45074;52.764;6.896;2022-08-25T05:53:31;11.65;;;6.43;;
59302;SDS011;45074;52.764;6.896;2022-08-25T05:55:57;8.98;;;6.35;;
59302;SDS011;45074;52.764;6.896;2022-08-25T05:58:24;9.10;;;6.30;;
59302;SDS011;45074;52.764;6.896;2022-08-25T06:00:52;9.15;;;6.50;;
59302;SDS011;45074;52.764;6.896;2022-08-25T06:03:18;10.80;;;6.35;;
59302;SDS011;45074;52.764;6.896;2022-08-25T06:05:44;9.73;;;6.10;;
59302;SDS011;45074;52.764;6.896;2022-08-25T06:08:10;9.43;;;6.15;;
59302;SDS011;45074;52.764;6.896;2022-08-25T06:10:36;11.98;;;6.43;;
59302;SDS011;45074;52.764;6.896;2022-08-25T06:13:02;10.93;;;6.07;;
59302;SDS011;45074;52.764;6.896;2022-08-25T06:15:28;10.90;;;6.28;;
59302;SDS011;45074;52.764;6.896;2022-08-25T06:17:54;9.73;;;6.07;;
59302;SDS011;45074;52.764;6.896;2022-08-25T06:20:23;9.90;;;6.53;;
59302;SDS011;45074;52.764;6.896;2022-08-25T06:22:50;10.35;;;6.18;;
59302;SDS011;45074;52.764;6.896;2022-08-25T06:25:18;11.60;;;6.35;;
59302;SDS011;45074;52.764;6.896;2022-08-25T06:27:45;12.80;;;6.38;;
59302;SDS011;45074;52.764;6.896;2022-08-25T06:30:12;10.35;;;6.05;;
59302;SDS011;45074;52.764;6.896;2022-08-25T06:32:39;10.10;;;5.65;;
59302;SDS011;45074;52.764;6.896;2022-08-25T06:35:08;12.05;;;5.90;;
59302;SDS011;45074;52.764;6.896;2022-08-25T06:37:35;9.88;;;5.70;;
59302;SDS011;45074;52.764;6.896;2022-08-25T06:40:02;11.07;;;5.65;;
59302;SDS011;45074;52.764;6.896;2022-08-25T06:42:30;11.70;;;5.65;;
59302;SDS011;45074;52.764;6.896;2022-08-25T06:44:55;9.15;;;5.40;;
59302;SDS011;45074;52.764;6.896;2022-08-25T06:47:21;8.82;;;5.38;;
59302;SDS011;45074;52.764;6.896;2022-08-25T06:49:47;10.15;;;5.53;;
59302;SDS011;45074;52.764;6.896;2022-08-25T06:52:12;9.50;;;5.45;;
59302;SDS011;45074;52.764;6.896;2022-08-25T06:54:38;9.35;;;4.95;;
59302;SDS011;45074;52.764;6.896;2022-08-25T06:57:05;11.02;;;6.10;;
59302;SDS011;45074;52.764;6.896;2022-08-25T06:59:31;9.55;;;5.35;;
59302;SDS011;45074;52.764;6.896;2022-08-25T07:01:58;11.68;;;5.85;;
59302;SDS011;45074;52.764;6.896;2022-08-25T07:04:24;7.60;;;5.20;;
59302;SDS011;45074;52.764;6.896;2022-08-25T07:06:50;9.70;;;5.35;;
59302;SDS011;45074;52.764;6.896;2022-08-25T07:09:16;9.07;;;5.47;;
59302;SDS011;45074;52.764;6.896;2022-08-25T07:11:42;10.18;;;5.05;;
59302;SDS011;45074;52.764;6.896;2022-08-25T07:14:11;8.32;;;5.40;;
59302;SDS011;45074;52.764;6.896;2022-08-25T07:16:39;10.00;;;5.00;;
59302;SDS011;45074;52.764;6.896;2022-08-25T07:19:05;11.48;;;5.75;;
59302;SDS011;45074;52.764;6.896;2022-08-25T07:21:35;10.60;;;5.47;;
59302;SDS011;45074;52.764;6.896;2022-08-25T07:24:12;9.82;;;5.10;;
59302;SDS011;45074;52.764;6.896;2022-08-25T07:26:39;10.85;;;5.35;;
59302;SDS011;45074;52.764;6.896;2022-08-25T07:29:13;8.40;;;5.45;;
59302;SDS011;45074;52.764;6.896;2022-08-25T07:31:41;11.45;;;5.25;;
59302;SDS011;45074;52.764;6.896;2022-08-25T07:34:07;8.25;;;5.30;;
59302;SDS011;45074;52.764;6.896;2022-08-25T07:36:53;7.95;;;5.05;;
59302;SDS011;45074;52.764;6.896;2022-08-25T07:39:20;9.43;;;5.15;;
59302;SDS011;45074;52.764;6.896;2022-08-25T07:41:46;11.07;;;5.55;;
59302;SDS011;45074;52.764;6.896;2022-08-25T07:44:11;9.05;;;5.15;;
59302;SDS011;45074;52.764;6.896;2022-08-25T07:46:37;8.30;;;5.07;;
59302;SDS011;45074;52.764;6.896;2022-08-25T07:49:04;9.85;;;5.18;;
59302;SDS011;45074;52.764;6.896;2022-08-25T07:51:30;10.52;;;5.05;;
59302;SDS011;45074;52.764;6.896;2022-08-25T07:53:55;9.70;;;5.22;;
59302;SDS011;45074;52.764;6.896;2022-08-25T07:56:21;7.38;;;4.70;;
59302;SDS011;45074;52.764;6.896;2022-08-25T07:58:46;9.20;;;5.47;;
59302;SDS011;45074;52.764;6.896;2022-08-25T08:01:13;10.00;;;6.18;;
59302;SDS011;45074;52.764;6.896;2022-08-25T08:03:40;10.80;;;5.75;;
59302;SDS011;45074;52.764;6.896;2022-08-25T08:06:07;9.63;;;5.55;;
59302;SDS011;45074;52.764;6.896;2022-08-25T08:08:38;7.20;;;5.25;;
59302;SDS011;45074;52.764;6.896;2022-08-25T08:11:10;8.82;;;5.05;;
59302;SDS011;45074;52.764;6.896;2022-08-25T08:13:41;9.18;;;4.75;;
59302;SDS011;45074;52.764;6.896;2022-08-25T08:16:11;10.25;;;4.55;;
59302;SDS011;45074;52.764;6.896;2022-08-25T08:21:04;10.90;;;4.93;;
59302;SDS011;45074;52.764;6.896;2022-08-25T08:23:34;10.27;;;4.82;;
59302;SDS011;45074;52.764;6.896;2022-08-25T08:26:00;9.05;;;4.72;;
59302;SDS011;45074;52.764;6.896;2022-08-25T08:28:26;10.70;;;5.10;;
59302;SDS011;45074;52.764;6.896;2022-08-25T08:30:52;11.75;;;4.65;;
59302;SDS011;45074;52.764;6.896;2022-08-25T08:33:18;10.98;;;5.28;;
59302;SDS011;45074;52.764;6.896;2022-08-25T08:35:43;8.82;;;5.00;;
59302;SDS011;45074;52.764;6.896;2022-08-25T08:38:09;7.45;;;4.60;;
59302;SDS011;45074;52.764;6.896;2022-08-25T08:40:38;8.05;;;4.88;;
59302;SDS011;45074;52.764;6.896;2022-08-25T08:43:44;7.55;;;4.10;;
59302;SDS011;45074;52.764;6.896;2022-08-25T08:46:14;8.07;;;4.47;;
59302;SDS011;45074;52.764;6.896;2022-08-25T08:48:59;9.32;;;4.30;;
59302;SDS011;45074;52.764;6.896;2022-08-25T08:51:32;9.52;;;4.60;;
59302;SDS011;45074;52.764;6.896;2022-08-25T08:56:35;7.13;;;4.40;;
59302;SDS011;45074;52.764;6.896;2022-08-25T08:59:10;9.65;;;4.43;;
59302;SDS011;45074;52.764;6.896;2022-08-25T09:01:51;9.35;;;4.28;;
59302;SDS011;45074;52.764;6.896;2022-08-25T09:06:56;9.52;;;4.60;;
59302;SDS011;45074;52.764;6.896;2022-08-25T09:09:26;7.38;;;4.50;;
59302;SDS011;45074;52.764;6.896;2022-08-25T09:17:35;8.00;;;4.13;;
59302;SDS011;45074;52.764;6.896;2022-08-25T09:25:59;7.70;;;3.75;;
59302;SDS011;45074;52.764;6.896;2022-08-25T09:28:59;8.43;;;3.63;;
59302;SDS011;45074;52.764;6.896;2022-08-25T09:31:29;8.20;;;3.50;;
59302;SDS011;45074;52.764;6.896;2022-08-25T09:36:23;6.07;;;3.50;;
59302;SDS011;45074;52.764;6.896;2022-08-25T09:38:49;8.80;;;3.80;;
59302;SDS011;45074;52.764;6.896;2022-08-25T09:41:17;9.45;;;4.10;;
59302;SDS011;45074;52.764;6.896;2022-08-25T09:43:51;6.53;;;3.90;;
59302;SDS011;45074;52.764;6.896;2022-08-25T09:46:24;8.20;;;3.35;;
59302;SDS011;45074;52.764;6.896;2022-08-25T09:48:52;7.47;;;3.55;;
59302;SDS011;45074;52.764;6.896;2022-08-25T09:53:56;8.15;;;4.15;;
59302;SDS011;45074;52.764;6.896;2022-08-25T09:56:25;6.82;;;3.58;;
59302;SDS011;45074;52.764;6.896;2022-08-25T09:58:52;7.05;;;3.50;;
59302;SDS011;45074;52.764;6.896;2022-08-25T10:01:22;9.00;;;3.88;;
59302;SDS011;45074;52.764;6.896;2022-08-25T10:03:56;8.38;;;3.83;;
59302;SDS011;45074;52.764;6.896;2022-08-25T10:06:23;7.43;;;3.70;;
59302;SDS011;45074;52.764;6.896;2022-08-25T10:14:39;6.95;;;3.78;;
59302;SDS011;45074;52.764;6.896;2022-08-25T10:16:47;8.80;;;3.55;;
59302;SDS011;45074;52.764;6.896;2022-08-25T10:19:21;8.73;;;3.60;;
59302;SDS011;45074;52.764;6.896;2022-08-25T10:24:29;7.38;;;3.65;;
59302;SDS011;45074;52.764;6.896;2022-08-25T10:27:12;7.43;;;3.95;;
59302;SDS011;45074;52.764;6.896;2022-08-25T10:29:48;6.47;;;3.58;;
59302;SDS011;45074;52.764;6.896;2022-08-25T10:34:53;7.00;;;3.53;;
59302;SDS011;45074;52.764;6.896;2022-08-25T10:37:39;7.40;;;3.65;;
59302;SDS011;45074;52.764;6.896;2022-08-25T10:40:19;7.30;;;4.05;;
59302;SDS011;45074;52.764;6.896;2022-08-25T10:50:28;8.98;;;4.18;;
59302;SDS011;45074;52.764;6.896;2022-08-25T10:52:59;6.72;;;3.70;;
59302;SDS011;45074;52.764;6.896;2022-08-25T10:55:33;5.97;;;3.75;;
59302;SDS011;45074;52.764;6.896;2022-08-25T11:00:30;8.40;;;4.10;;
59302;SDS011;45074;52.764;6.896;2022-08-25T11:05:39;7.57;;;4.10;;
59302;SDS011;45074;52.764;6.896;2022-08-25T11:08:07;6.60;;;3.78;;
59302;SDS011;45074;52.764;6.896;2022-08-25T11:10:43;6.88;;;3.10;;
59302;SDS011;45074;52.764;6.896;2022-08-25T11:13:12;7.88;;;3.53;;
59302;SDS011;45074;52.764;6.896;2022-08-25T11:15:49;5.95;;;3.45;;
59302;SDS011;45074;52.764;6.896;2022-08-25T11:18:16;5.15;;;3.42;;
59302;SDS011;45074;52.764;6.896;2022-08-25T11:20:49;7.63;;;2.75;;
59302;SDS011;45074;52.764;6.896;2022-08-25T11:23:27;6.43;;;3.03;;
59302;SDS011;45074;52.764;6.896;2022-08-25T11:25:58;6.75;;;2.83;;
59302;SDS011;45074;52.764;6.896;2022-08-25T11:28:29;4.25;;;2.67;;
59302;SDS011;45074;52.764;6.896;2022-08-25T11:30:58;6.15;;;3.30;;
59302;SDS011;45074;52.764;6.896;2022-08-25T11:33:24;8.70;;;3.17;;
59302;SDS011;45074;52.764;6.896;2022-08-25T11:38:35;5.25;;;2.92;;
59302;SDS011;45074;52.764;6.896;2022-08-25T11:41:04;6.97;;;2.90;;
59302;SDS011;45074;52.764;6.896;2022-08-25T11:43:41;7.32;;;2.92;;
59302;SDS011;45074;52.764;6.896;2022-08-25T11:46:21;6.00;;;2.80;;
59302;SDS011;45074;52.764;6.896;2022-08-25T11:56:58;5.57;;;2.72;;
59302;SDS011;45074;52.764;6.896;2022-08-25T12:02:33;8.13;;;2.90;;
59302;SDS011;45074;52.764;6.896;2022-08-25T12:04:56;5.28;;;3.10;;
59302;SDS011;45074;52.764;6.896;2022-08-25T12:07:23;7.18;;;3.08;;
59302;SDS011;45074;52.764;6.896;2022-08-25T12:17:43;6.88;;;2.90;;
59302;SDS011;45074;52.764;6.896;2022-08-25T12:20:09;6.50;;;3.20;;
59302;SDS011;45074;52.764;6.896;2022-08-25T12:25:03;7.57;;;3.30;;
59302;SDS011;45074;52.764;6.896;2022-08-25T12:30:45;6.40;;;3.20;;
59302;SDS011;45074;52.764;6.896;2022-08-25T12:36:03;5.82;;;3.10;;
59302;SDS011;45074;52.764;6.896;2022-08-25T12:41:11;5.50;;;3.10;;
59302;SDS011;45074;52.764;6.896;2022-08-25T12:43:42;7.30;;;3.60;;
59302;SDS011;45074;52.764;6.896;2022-08-25T12:48:52;6.45;;;3.50;;
59302;SDS011;45074;52.764;6.896;2022-08-25T12:51:20;5.80;;;3.40;;
59302;SDS011;45074;52.764;6.896;2022-08-25T12:53:59;7.88;;;3.55;;
59302;SDS011;45074;52.764;6.896;2022-08-25T12:56:37;6.97;;;3.42;;
59302;SDS011;45074;52.764;6.896;2022-08-25T13:07:00;7.13;;;3.55;;
59302;SDS011;45074;52.764;6.896;2022-08-25T13:14:42;5.80;;;3.40;;
59302;SDS011;45074;52.764;6.896;2022-08-25T13:17:08;5.32;;;3.55;;
59302;SDS011;45074;52.764;6.896;2022-08-25T13:19:35;7.68;;;3.58;;
59302;SDS011;45074;52.764;6.896;2022-08-25T13:22:11;6.97;;;3.80;;
59302;SDS011;45074;52.764;6.896;2022-08-25T13:24:41;6.38;;;3.92;;
59302;SDS011;45074;52.764;6.896;2022-08-25T13:27:08;7.05;;;3.55;;
59302;SDS011;45074;52.764;6.896;2022-08-25T13:29:56;5.93;;;3.15;;
59302;SDS011;45074;52.764;6.896;2022-08-25T13:32:30;7.93;;;3.50;;
59302;SDS011;45074;52.764;6.896;2022-08-25T13:35:14;7.50;;;3.55;;
59302;SDS011;45074;52.764;6.896;2022-08-25T13:37:40;4.28;;;3.33;;
59302;SDS011;45074;52.764;6.896;2022-08-25T13:40:27;4.72;;;3.28;;
59302;SDS011;45074;52.764;6.896;2022-08-25T13:42:58;7.25;;;3.33;;
59302;SDS011;45074;52.764;6.896;2022-08-25T13:45:26;6.32;;;2.78;;
59302;SDS011;45074;52.764;6.896;2022-08-25T13:47:52;6.47;;;2.83;;
59302;SDS011;45074;52.764;6.896;2022-08-25T13:52:55;6.47;;;3.38;;
59302;SDS011;45074;52.764;6.896;2022-08-25T13:55:26;6.05;;;3.05;;
59302;SDS011;45074;52.764;6.896;2022-08-25T13:57:53;7.18;;;3.10;;
59302;SDS011;45074;52.764;6.896;2022-08-25T14:00:30;5.78;;;3.20;;
59302;SDS011;45074;52.764;6.896;2022-08-25T14:02:56;5.95;;;2.80;;
59302;SDS011;45074;52.764;6.896;2022-08-25T14:05:34;7.60;;;3.20;;
59302;SDS011;45074;52.764;6.896;2022-08-25T14:08:01;5.63;;;2.97;;
59302;SDS011;45074;52.764;6.896;2022-08-25T14:10:42;4.70;;;2.88;;
59302;SDS011;45074;52.764;6.896;2022-08-25T14:13:30;5.57;;;2.88;;
59302;SDS011;45074;52.764;6.896;2022-08-25T14:16:08;4.75;;;2.50;;
59302;SDS011;45074;52.764;6.896;2022-08-25T14:18:36;5.13;;;2.88;;
59302;SDS011;45074;52.764;6.896;2022-08-25T14:21:07;4.28;;;2.85;;
59302;SDS011;45074;52.764;6.896;2022-08-25T14:23:35;4.47;;;2.72;;
59302;SDS011;45074;52.764;6.896;2022-08-25T14:26:01;4.35;;;2.72;;
59302;SDS011;45074;52.764;6.896;2022-08-25T14:28:28;5.07;;;2.53;;
59302;SDS011;45074;52.764;6.896;2022-08-25T14:30:56;4.30;;;2.72;;
59302;SDS011;45074;52.764;6.896;2022-08-25T14:33:28;5.22;;;2.25;;
59302;SDS011;45074;52.764;6.896;2022-08-25T14:35:56;6.63;;;2.30;;
59302;SDS011;45074;52.764;6.896;2022-08-25T14:38:23;4.47;;;2.40;;
59302;SDS011;45074;52.764;6.896;2022-08-25T14:40:50;4.05;;;2.40;;
59302;SDS011;45074;52.764;6.896;2022-08-25T14:43:17;6.05;;;2.60;;
59302;SDS011;45074;52.764;6.896;2022-08-25T14:45:44;4.50;;;2.40;;
59302;SDS011;45074;52.764;6.896;2022-08-25T14:48:32;5.43;;;2.40;;
59302;SDS011;45074;52.764;6.896;2022-08-25T14:50:59;4.90;;;2.45;;
59302;SDS011;45074;52.764;6.896;2022-08-25T14:53:26;4.03;;;2.70;;
59302;SDS011;45074;52.764;6.896;2022-08-25T14:55:52;6.03;;;2.80;;
59302;SDS011;45074;52.764;6.896;2022-08-25T14:58:22;5.80;;;2.90;;
59302;SDS011;45074;52.764;6.896;2022-08-25T15:00:48;4.75;;;2.78;;
59302;SDS011;45074;52.764;6.896;2022-08-25T15:03:15;5.45;;;2.70;;
59302;SDS011;45074;52.764;6.896;2022-08-25T15:05:43;6.28;;;3.10;;
59302;SDS011;45074;52.764;6.896;2022-08-25T15:08:12;5.85;;;2.92;;
59302;SDS011;45074;52.764;6.896;2022-08-25T15:10:57;5.65;;;2.70;;
59302;SDS011;45074;52.764;6.896;2022-08-25T15:13:23;5.65;;;2.95;;
59302;SDS011;45074;52.764;6.896;2022-08-25T15:15:51;4.88;;;2.90;;
59302;SDS011;45074;52.764;6.896;2022-08-25T15:18:18;5.90;;;3.03;;
59302;SDS011;45074;52.764;6.896;2022-08-25T15:20:45;4.80;;;2.70;;
59302;SDS011;45074;52.764;6.896;2022-08-25T15:23:11;7.00;;;3.13;;
59302;SDS011;45074;52.764;6.896;2022-08-25T15:25:37;5.32;;;2.65;;
59302;SDS011;45074;52.764;6.896;2022-08-25T15:28:05;6.55;;;3.20;;
59302;SDS011;45074;52.764;6.896;2022-08-25T15:30:33;5.00;;;2.85;;
59302;SDS011;45074;52.764;6.896;2022-08-25T15:32:59;6.85;;;3.00;;
59302;SDS011;45074;52.764;6.896;2022-08-25T15:35:25;4.72;;;2.90;;
59302;SDS011;45074;52.764;6.896;2022-08-25T15:37:51;5.65;;;2.90;;
59302;SDS011;45074;52.764;6.896;2022-08-25T15:40:17;5.97;;;3.10;;
59302;SDS011;45074;52.764;6.896;2022-08-25T15:42:43;5.55;;;3.17;;
59302;SDS011;45074;52.764;6.896;2022-08-25T15:45:10;4.50;;;3.10;;
59302;SDS011;45074;52.764;6.896;2022-08-25T15:47:36;6.38;;;3.50;;
59302;SDS011;45074;52.764;6.896;2022-08-25T15:50:04;7.03;;;3.72;;
59302;SDS011;45074;52.764;6.896;2022-08-25T15:52:31;6.30;;;3.80;;
59302;SDS011;45074;52.764;6.896;2022-08-25T15:54:57;6.47;;;3.75;;
59302;SDS011;45074;52.764;6.896;2022-08-25T15:57:23;5.93;;;3.53;;
59302;SDS011;45074;52.764;6.896;2022-08-25T15:59:49;6.18;;;3.55;;
59302;SDS011;45074;52.764;6.896;2022-08-25T16:02:16;5.75;;;3.22;;
59302;SDS011;45074;52.764;6.896;2022-08-25T16:04:42;5.95;;;3.50;;
59302;SDS011;45074;52.764;6.896;2022-08-25T16:07:08;7.00;;;3.80;;
59302;SDS011;45074;52.764;6.896;2022-08-25T16:09:34;7.45;;;3.92;;
59302;SDS011;45074;52.764;6.896;2022-08-25T16:12:01;7.38;;;3.83;;
59302;SDS011;45074;52.764;6.896;2022-08-25T16:14:27;8.57;;;4.20;;
59302;SDS011;45074;52.764;6.896;2022-08-25T16:16:53;8.15;;;4.07;;
59302;SDS011;45074;52.764;6.896;2022-08-25T16:19:19;6.63;;;4.38;;
59302;SDS011;45074;52.764;6.896;2022-08-25T16:21:46;8.35;;;4.30;;
59302;SDS011;45074;52.764;6.896;2022-08-25T16:24:12;6.78;;;4.30;;
59302;SDS011;45074;52.764;6.896;2022-08-25T16:26:38;6.15;;;4.93;;
59302;SDS011;45074;52.764;6.896;2022-08-25T16:29:07;9.02;;;5.65;;
59302;SDS011;45074;52.764;6.896;2022-08-25T16:31:33;6.20;;;4.32;;
59302;SDS011;45074;52.764;6.896;2022-08-25T16:34:00;7.50;;;5.18;;
59302;SDS011;45074;52.764;6.896;2022-08-25T16:36:26;6.78;;;4.32;;
59302;SDS011;45074;52.764;6.896;2022-08-25T16:38:53;8.45;;;5.40;;